sensor_id;sensor_type;location;lat;lon;timestamp;temperature;humidity
44166;DHT22;30476;53.468;9.826;2023-02-01T00:01:18;6.40;99.90
44166;DHT22;30476;53.468;9.826;2023-02-01T00:03:44;6.40;99.90
44166;DHT22;30476;53.468;9.826;2023-02-01T00:06:09;6.40;99.90
44166;DHT22;30476;53.468;9.826;2023-02-01T00:08:35;6.40;99.90
44166;DHT22;30476;53.468;9.826;2023-02-01T00:11:07;6.40;99.90
44166;DHT22;30476;53.468;9.826;2023-02-01T00:13:35;6.40;99.90
44166;DHT22;30476;53.468;9.826;2023-02-01T00:16:12;6.40;99.90
44166;DHT22;30476;53.468;9.826;2023-02-01T00:18:38;6.40;99.90
44166;DHT22;30476;53.468;9.826;2023-02-01T00:21:04;6.40;99.90
44166;DHT22;30476;53.468;9.826;2023-02-01T00:23:34;6.40;99.90
44166;DHT22;30476;53.468;9.826;2023-02-01T00:26:02;6.40;99.90
44166;DHT22;30476;53.468;9.826;2023-02-01T00:28:28;6.40;99.90
44166;DHT22;30476;53.468;9.826;2023-02-01T00:30:59;6.40;99.90
44166;DHT22;30476;53.468;9.826;2023-02-01T00:33:25;6.40;99.90
44166;DHT22;30476;53.468;9.826;2023-02-01T00:35:55;6.40;99.90
44166;DHT22;30476;53.468;9.826;2023-02-01T00:38:21;6.50;99.90
44166;DHT22;30476;53.468;9.826;2023-02-01T00:40:47;6.50;99.90
44166;DHT22;30476;53.468;9.826;2023-02-01T00:43:13;6.50;99.90
44166;DHT22;30476;53.468;9.826;2023-02-01T00:45:38;6.50;99.90
44166;DHT22;30476;53.468;9.826;2023-02-01T00:48:04;6.50;99.90
44166;DHT22;30476;53.468;9.826;2023-02-01T00:50:30;6.60;99.90
44166;DHT22;30476;53.468;9.826;2023-02-01T00:52:56;6.50;99.90
44166;DHT22;30476;53.468;9.826;2023-02-01T00:55:22;6.60;99.90
44166;DHT22;30476;53.468;9.826;2023-02-01T00:57:47;6.60;99.90
44166;DHT22;30476;53.468;9.826;2023-02-01T01:00:14;6.60;99.90
44166;DHT22;30476;53.468;9.826;2023-02-01T01:02:40;6.60;99.90
44166;DHT22;30476;53.468;9.826;2023-02-01T01:05:06;6.60;99.90
44166;DHT22;30476;53.468;9.826;2023-02-01T01:07:32;6.60;99.90
44166;DHT22;30476;53.468;9.826;2023-02-01T01:09:58;6.60;99.90
44166;DHT22;30476;53.468;9.826;2023-02-01T01:12:24;6.60;99.90
44166;DHT22;30476;53.468;9.826;2023-02-01T01:14:50;6.70;99.90
44166;DHT22;30476;53.468;9.826;2023-02-01T01:17:16;6.70;99.90
44166;DHT22;30476;53.468;9.826;2023-02-01T01:19:41;6.70;99.90
44166;DHT22;30476;53.468;9.826;2023-02-01T01:22:07;6.70;99.90
44166;DHT22;30476;53.468;9.826;2023-02-01T01:24:33;6.70;99.90
44166;DHT22;30476;53.468;9.826;2023-02-01T01:26:59;6.80;99.90
44166;DHT22;30476;53.468;9.826;2023-02-01T01:29:25;6.80;99.90
44166;DHT22;30476;53.468;9.826;2023-02-01T01:31:51;6.80;99.90
44166;DHT22;30476;53.468;9.826;2023-02-01T01:34:16;6.80;99.90
44166;DHT22;30476;53.468;9.826;2023-02-01T01:36:42;6.90;99.90
44166;DHT22;30476;53.468;9.826;2023-02-01T01:39:08;6.90;99.90
44166;DHT22;30476;53.468;9.826;2023-02-01T01:41:34;6.90;99.90
44166;DHT22;30476;53.468;9.826;2023-02-01T01:44:02;6.80;99.90
44166;DHT22;30476;53.468;9.826;2023-02-01T01:46:29;6.80;99.90
44166;DHT22;30476;53.468;9.826;2023-02-01T01:49:03;6.90;99.90
44166;DHT22;30476;53.468;9.826;2023-02-01T01:51:32;6.90;99.90
44166;DHT22;30476;53.468;9.826;2023-02-01T01:54:08;6.90;99.90
44166;DHT22;30476;53.468;9.826;2023-02-01T01:56:35;6.90;99.90
44166;DHT22;30476;53.468;9.826;2023-02-01T01:59:01;6.90;99.90
44166;DHT22;30476;53.468;9.826;2023-02-01T02:01:28;6.80;99.90
44166;DHT22;30476;53.468;9.826;2023-02-01T02:03:54;6.80;99.90
44166;DHT22;30476;53.468;9.826;2023-02-01T02:06:30;6.90;99.90
44166;DHT22;30476;53.468;9.826;2023-02-01T02:08:57;6.90;99.90
44166;DHT22;30476;53.468;9.826;2023-02-01T02:11:23;6.90;99.90
44166;DHT22;30476;53.468;9.826;2023-02-01T02:13:51;6.90;99.90
44166;DHT22;30476;53.468;9.826;2023-02-01T02:16:25;6.90;99.90
44166;DHT22;30476;53.468;9.826;2023-02-01T02:22:06;6.80;99.90
44166;DHT22;30476;53.468;9.826;2023-02-01T02:24:56;6.80;99.90
44166;DHT22;30476;53.468;9.826;2023-02-01T02:27:30;6.80;99.90
44166;DHT22;30476;53.468;9.826;2023-02-01T02:38:21;6.90;99.90
44166;DHT22;30476;53.468;9.826;2023-02-01T02:41:13;6.90;99.90
44166;DHT22;30476;53.468;9.826;2023-02-01T02:44:08;6.90;99.90
44166;DHT22;30476;53.468;9.826;2023-02-01T02:46:59;6.80;99.90
44166;DHT22;30476;53.468;9.826;2023-02-01T02:52:57;6.80;99.90
44166;DHT22;30476;53.468;9.826;2023-02-01T02:55:45;6.80;99.90
44166;DHT22;30476;53.468;9.826;2023-02-01T02:58:12;6.80;99.90
44166;DHT22;30476;53.468;9.826;2023-02-01T03:00:57;6.80;99.90
44166;DHT22;30476;53.468;9.826;2023-02-01T03:03:43;6.70;99.90
44166;DHT22;30476;53.468;9.826;2023-02-01T03:06:34;6.80;99.90
44166;DHT22;30476;53.468;9.826;2023-02-01T03:09:02;6.70;99.90
44166;DHT22;30476;53.468;9.826;2023-02-01T03:11:31;6.70;99.90
44166;DHT22;30476;53.468;9.826;2023-02-01T03:14:20;6.70;99.90
44166;DHT22;30476;53.468;9.826;2023-02-01T03:16:53;6.70;99.90
44166;DHT22;30476;53.468;9.826;2023-02-01T03:19:31;6.70;99.90
44166;DHT22;30476;53.468;9.826;2023-02-01T03:22:08;6.70;99.90
44166;DHT22;30476;53.468;9.826;2023-02-01T03:24:42;6.70;99.90
44166;DHT22;30476;53.468;9.826;2023-02-01T03:27:18;6.70;99.90
44166;DHT22;30476;53.468;9.826;2023-02-01T03:29:53;6.60;99.90
44166;DHT22;30476;53.468;9.826;2023-02-01T03:32:20;6.60;99.90
44166;DHT22;30476;53.468;9.826;2023-02-01T03:34:47;6.60;99.90
44166;DHT22;30476;53.468;9.826;2023-02-01T03:37:18;6.60;99.90
44166;DHT22;30476;53.468;9.826;2023-02-01T03:40:00;6.50;99.90
44166;DHT22;30476;53.468;9.826;2023-02-01T03:47:34;6.50;99.90
44166;DHT22;30476;53.468;9.826;2023-02-01T03:50:08;6.40;99.90
44166;DHT22;30476;53.468;9.826;2023-02-01T03:52:41;6.40;99.90
44166;DHT22;30476;53.468;9.826;2023-02-01T03:55:09;6.50;99.90
44166;DHT22;30476;53.468;9.826;2023-02-01T03:57:40;6.40;99.90
44166;DHT22;30476;53.468;9.826;2023-02-01T04:00:17;6.40;99.90
44166;DHT22;30476;53.468;9.826;2023-02-01T04:02:44;6.40;99.90
44166;DHT22;30476;53.468;9.826;2023-02-01T04:05:09;6.40;99.90
44166;DHT22;30476;53.468;9.826;2023-02-01T04:07:35;6.30;99.90
44166;DHT22;30476;53.468;9.826;2023-02-01T04:10:01;6.30;99.90
44166;DHT22;30476;53.468;9.826;2023-02-01T04:12:29;6.30;99.90
44166;DHT22;30476;53.468;9.826;2023-02-01T04:14:55;6.30;99.90
44166;DHT22;30476;53.468;9.826;2023-02-01T04:17:20;6.30;99.90
44166;DHT22;30476;53.468;9.826;2023-02-01T04:19:46;6.30;99.90
44166;DHT22;30476;53.468;9.826;2023-02-01T04:22:12;6.30;99.90
44166;DHT22;30476;53.468;9.826;2023-02-01T04:24:38;6.20;99.90
44166;DHT22;30476;53.468;9.826;2023-02-01T04:27:04;6.20;99.90
44166;DHT22;30476;53.468;9.826;2023-02-01T04:29:30;6.20;99.90
44166;DHT22;30476;53.468;9.826;2023-02-01T04:31:55;6.20;99.90
44166;DHT22;30476;53.468;9.826;2023-02-01T04:34:21;6.20;99.90
44166;DHT22;30476;53.468;9.826;2023-02-01T04:36:48;6.20;99.90
44166;DHT22;30476;53.468;9.826;2023-02-01T04:39:14;6.20;99.90
44166;DHT22;30476;53.468;9.826;2023-02-01T04:41:40;6.20;99.90
44166;DHT22;30476;53.468;9.826;2023-02-01T04:44:05;6.20;99.90
44166;DHT22;30476;53.468;9.826;2023-02-01T04:46:31;6.10;99.90
44166;DHT22;30476;53.468;9.826;2023-02-01T04:48:57;6.10;99.90
44166;DHT22;30476;53.468;9.826;2023-02-01T04:51:23;6.10;99.90
44166;DHT22;30476;53.468;9.826;2023-02-01T04:53:49;6.10;99.90
44166;DHT22;30476;53.468;9.826;2023-02-01T04:56:14;6.10;99.90
44166;DHT22;30476;53.468;9.826;2023-02-01T04:58:40;6.10;99.90
44166;DHT22;30476;53.468;9.826;2023-02-01T05:01:06;6.10;99.90
44166;DHT22;30476;53.468;9.826;2023-02-01T05:03:33;6.10;99.90
44166;DHT22;30476;53.468;9.826;2023-02-01T05:05:59;6.10;99.90
44166;DHT22;30476;53.468;9.826;2023-02-01T05:08:26;6.10;99.90
44166;DHT22;30476;53.468;9.826;2023-02-01T05:10:53;6.00;99.90
44166;DHT22;30476;53.468;9.826;2023-02-01T05:13:19;6.00;99.90
44166;DHT22;30476;53.468;9.826;2023-02-01T05:16:03;5.90;99.90
44166;DHT22;30476;53.468;9.826;2023-02-01T05:18:29;5.80;99.90
44166;DHT22;30476;53.468;9.826;2023-02-01T05:20:56;5.80;99.90
44166;DHT22;30476;53.468;9.826;2023-02-01T05:23:22;5.70;99.90
44166;DHT22;30476;53.468;9.826;2023-02-01T05:25:47;5.60;99.90
44166;DHT22;30476;53.468;9.826;2023-02-01T05:28:13;5.60;99.90
44166;DHT22;30476;53.468;9.826;2023-02-01T05:30:39;5.50;99.90
44166;DHT22;30476;53.468;9.826;2023-02-01T05:33:05;5.50;99.90
44166;DHT22;30476;53.468;9.826;2023-02-01T05:35:31;5.50;99.90
44166;DHT22;30476;53.468;9.826;2023-02-01T05:37:56;5.40;99.90
44166;DHT22;30476;53.468;9.826;2023-02-01T05:40:22;5.40;99.90
44166;DHT22;30476;53.468;9.826;2023-02-01T05:42:48;5.40;99.90
44166;DHT22;30476;53.468;9.826;2023-02-01T05:45:14;5.40;99.90
44166;DHT22;30476;53.468;9.826;2023-02-01T05:47:40;5.30;99.90
44166;DHT22;30476;53.468;9.826;2023-02-01T05:50:06;5.30;99.90
44166;DHT22;30476;53.468;9.826;2023-02-01T05:52:32;5.20;99.90
44166;DHT22;30476;53.468;9.826;2023-02-01T05:54:58;5.30;99.90
44166;DHT22;30476;53.468;9.826;2023-02-01T05:57:24;5.20;99.90
44166;DHT22;30476;53.468;9.826;2023-02-01T05:59:50;5.10;99.90
44166;DHT22;30476;53.468;9.826;2023-02-01T06:02:16;5.10;99.90
44166;DHT22;30476;53.468;9.826;2023-02-01T06:04:42;5.10;99.90
44166;DHT22;30476;53.468;9.826;2023-02-01T06:07:08;5.10;99.90
44166;DHT22;30476;53.468;9.826;2023-02-01T06:09:36;5.10;99.90
44166;DHT22;30476;53.468;9.826;2023-02-01T06:12:03;5.20;99.90
44166;DHT22;30476;53.468;9.826;2023-02-01T06:14:29;5.20;99.90
44166;DHT22;30476;53.468;9.826;2023-02-01T06:16:55;5.20;99.90
44166;DHT22;30476;53.468;9.826;2023-02-01T06:19:21;5.20;99.90
44166;DHT22;30476;53.468;9.826;2023-02-01T06:21:47;5.30;99.90
44166;DHT22;30476;53.468;9.826;2023-02-01T06:24:13;5.30;99.90
44166;DHT22;30476;53.468;9.826;2023-02-01T06:26:39;5.30;99.90
44166;DHT22;30476;53.468;9.826;2023-02-01T06:29:06;5.30;99.90
44166;DHT22;30476;53.468;9.826;2023-02-01T06:31:33;5.30;99.90
44166;DHT22;30476;53.468;9.826;2023-02-01T06:33:59;5.40;99.90
44166;DHT22;30476;53.468;9.826;2023-02-01T06:36:24;5.40;99.90
44166;DHT22;30476;53.468;9.826;2023-02-01T06:38:50;5.40;99.90
44166;DHT22;30476;53.468;9.826;2023-02-01T06:41:16;5.40;99.90
44166;DHT22;30476;53.468;9.826;2023-02-01T06:43:42;5.50;99.90
44166;DHT22;30476;53.468;9.826;2023-02-01T06:46:11;5.50;99.90
44166;DHT22;30476;53.468;9.826;2023-02-01T06:48:37;5.50;99.90
44166;DHT22;30476;53.468;9.826;2023-02-01T06:51:04;5.50;99.90
44166;DHT22;30476;53.468;9.826;2023-02-01T06:53:30;5.60;99.90
44166;DHT22;30476;53.468;9.826;2023-02-01T06:56:02;5.50;99.90
44166;DHT22;30476;53.468;9.826;2023-02-01T06:58:30;5.50;99.90
44166;DHT22;30476;53.468;9.826;2023-02-01T07:00:56;5.50;99.90
44166;DHT22;30476;53.468;9.826;2023-02-01T07:03:22;5.50;99.90
44166;DHT22;30476;53.468;9.826;2023-02-01T07:05:48;5.50;99.90
44166;DHT22;30476;53.468;9.826;2023-02-01T07:08:14;5.50;99.90
44166;DHT22;30476;53.468;9.826;2023-02-01T07:10:40;5.50;99.90
44166;DHT22;30476;53.468;9.826;2023-02-01T07:13:05;5.60;99.90
44166;DHT22;30476;53.468;9.826;2023-02-01T07:15:31;5.60;99.90
44166;DHT22;30476;53.468;9.826;2023-02-01T07:17:57;5.60;99.90
44166;DHT22;30476;53.468;9.826;2023-02-01T07:20:23;5.60;99.90
44166;DHT22;30476;53.468;9.826;2023-02-01T07:22:54;5.60;99.90
44166;DHT22;30476;53.468;9.826;2023-02-01T07:25:20;5.60;99.90
44166;DHT22;30476;53.468;9.826;2023-02-01T07:27:45;5.70;99.90
44166;DHT22;30476;53.468;9.826;2023-02-01T07:30:12;5.60;99.90
44166;DHT22;30476;53.468;9.826;2023-02-01T07:32:38;5.70;99.90
44166;DHT22;30476;53.468;9.826;2023-02-01T07:35:04;5.70;99.90
44166;DHT22;30476;53.468;9.826;2023-02-01T07:37:30;5.80;99.90
44166;DHT22;30476;53.468;9.826;2023-02-01T07:39:56;5.80;99.90
44166;DHT22;30476;53.468;9.826;2023-02-01T07:42:22;5.80;99.90
44166;DHT22;30476;53.468;9.826;2023-02-01T07:44:47;5.90;99.90
44166;DHT22;30476;53.468;9.826;2023-02-01T07:47:13;5.90;99.90
44166;DHT22;30476;53.468;9.826;2023-02-01T07:49:39;5.90;99.90
44166;DHT22;30476;53.468;9.826;2023-02-01T07:52:05;5.90;99.90
44166;DHT22;30476;53.468;9.826;2023-02-01T07:54:30;5.90;99.90
44166;DHT22;30476;53.468;9.826;2023-02-01T07:56:56;5.90;99.90
44166;DHT22;30476;53.468;9.826;2023-02-01T07:59:22;6.00;99.90
44166;DHT22;30476;53.468;9.826;2023-02-01T08:01:48;6.00;99.90
44166;DHT22;30476;53.468;9.826;2023-02-01T08:04:13;6.00;99.90
44166;DHT22;30476;53.468;9.826;2023-02-01T08:06:39;6.00;99.90
44166;DHT22;30476;53.468;9.826;2023-02-01T08:09:06;6.10;99.90
44166;DHT22;30476;53.468;9.826;2023-02-01T08:11:37;6.10;99.90
44166;DHT22;30476;53.468;9.826;2023-02-01T08:14:04;6.10;99.90
44166;DHT22;30476;53.468;9.826;2023-02-01T08:16:30;6.10;99.90
44166;DHT22;30476;53.468;9.826;2023-02-01T08:18:56;6.10;99.90
44166;DHT22;30476;53.468;9.826;2023-02-01T08:21:27;6.10;99.90
44166;DHT22;30476;53.468;9.826;2023-02-01T08:24:05;6.10;99.90
44166;DHT22;30476;53.468;9.826;2023-02-01T08:26:32;6.20;99.90
44166;DHT22;30476;53.468;9.826;2023-02-01T08:28:59;6.20;99.90
44166;DHT22;30476;53.468;9.826;2023-02-01T08:31:27;6.20;99.90
44166;DHT22;30476;53.468;9.826;2023-02-01T08:33:56;6.20;99.90
44166;DHT22;30476;53.468;9.826;2023-02-01T08:36:24;6.30;99.90
44166;DHT22;30476;53.468;9.826;2023-02-01T08:38:50;6.30;99.90
44166;DHT22;30476;53.468;9.826;2023-02-01T08:41:18;6.40;99.90
44166;DHT22;30476;53.468;9.826;2023-02-01T08:43:45;6.40;99.90
44166;DHT22;30476;53.468;9.826;2023-02-01T08:46:11;6.40;99.90
44166;DHT22;30476;53.468;9.826;2023-02-01T08:48:37;6.40;99.90
44166;DHT22;30476;53.468;9.826;2023-02-01T08:51:06;6.50;99.90
44166;DHT22;30476;53.468;9.826;2023-02-01T08:53:32;6.50;99.90
44166;DHT22;30476;53.468;9.826;2023-02-01T08:55:58;6.50;99.90
44166;DHT22;30476;53.468;9.826;2023-02-01T08:58:24;6.60;99.90
44166;DHT22;30476;53.468;9.826;2023-02-01T09:00:50;6.60;99.90
44166;DHT22;30476;53.468;9.826;2023-02-01T09:03:16;6.60;99.90
44166;DHT22;30476;53.468;9.826;2023-02-01T09:05:42;6.60;99.90
44166;DHT22;30476;53.468;9.826;2023-02-01T09:08:08;6.70;99.90
44166;DHT22;30476;53.468;9.826;2023-02-01T09:10:35;6.70;99.90
44166;DHT22;30476;53.468;9.826;2023-02-01T09:13:01;6.70;99.90
44166;DHT22;30476;53.468;9.826;2023-02-01T09:15:28;6.70;99.90
44166;DHT22;30476;53.468;9.826;2023-02-01T09:17:54;6.80;99.90
44166;DHT22;30476;53.468;9.826;2023-02-01T09:20:20;6.80;99.90
44166;DHT22;30476;53.468;9.826;2023-02-01T09:22:50;6.80;99.90
44166;DHT22;30476;53.468;9.826;2023-02-01T09:25:17;6.80;99.90
44166;DHT22;30476;53.468;9.826;2023-02-01T09:27:43;6.90;99.90
44166;DHT22;30476;53.468;9.826;2023-02-01T09:30:09;6.90;99.90
44166;DHT22;30476;53.468;9.826;2023-02-01T09:32:35;6.90;99.90
44166;DHT22;30476;53.468;9.826;2023-02-01T09:35:01;6.80;99.90
44166;DHT22;30476;53.468;9.826;2023-02-01T09:37:27;6.90;99.90
44166;DHT22;30476;53.468;9.826;2023-02-01T09:39:53;6.90;99.90
44166;DHT22;30476;53.468;9.826;2023-02-01T09:42:48;6.90;99.90
44166;DHT22;30476;53.468;9.826;2023-02-01T09:45:50;6.90;99.90
44166;DHT22;30476;53.468;9.826;2023-02-01T09:48:20;6.90;99.90
44166;DHT22;30476;53.468;9.826;2023-02-01T09:50:57;7.00;99.90
44166;DHT22;30476;53.468;9.826;2023-02-01T09:53:46;7.00;99.90
44166;DHT22;30476;53.468;9.826;2023-02-01T09:56:23;7.10;99.90
44166;DHT22;30476;53.468;9.826;2023-02-01T09:59:09;7.10;99.90
44166;DHT22;30476;53.468;9.826;2023-02-01T10:01:37;7.10;99.90
44166;DHT22;30476;53.468;9.826;2023-02-01T10:04:07;7.10;99.90
44166;DHT22;30476;53.468;9.826;2023-02-01T10:06:59;7.20;99.90
44166;DHT22;30476;53.468;9.826;2023-02-01T10:12:37;7.30;99.90
44166;DHT22;30476;53.468;9.826;2023-02-01T10:18:11;7.20;99.90
44166;DHT22;30476;53.468;9.826;2023-02-01T10:26:17;7.30;99.90
44166;DHT22;30476;53.468;9.826;2023-02-01T10:28:48;7.30;99.90
44166;DHT22;30476;53.468;9.826;2023-02-01T10:31:15;7.30;99.90
44166;DHT22;30476;53.468;9.826;2023-02-01T10:33:51;7.30;99.90
44166;DHT22;30476;53.468;9.826;2023-02-01T10:36:42;7.30;99.90
44166;DHT22;30476;53.468;9.826;2023-02-01T10:39:15;7.30;99.90
44166;DHT22;30476;53.468;9.826;2023-02-01T10:41:41;7.30;99.90
44166;DHT22;30476;53.468;9.826;2023-02-01T10:44:23;7.30;99.90
44166;DHT22;30476;53.468;9.826;2023-02-01T10:46:50;7.30;99.90
44166;DHT22;30476;53.468;9.826;2023-02-01T10:49:29;7.30;99.90
44166;DHT22;30476;53.468;9.826;2023-02-01T10:52:17;7.30;99.90
44166;DHT22;30476;53.468;9.826;2023-02-01T10:54:45;7.30;99.90
44166;DHT22;30476;53.468;9.826;2023-02-01T10:57:25;7.30;99.90
44166;DHT22;30476;53.468;9.826;2023-02-01T10:59:55;7.30;99.90
44166;DHT22;30476;53.468;9.826;2023-02-01T11:02:31;7.30;99.90
44166;DHT22;30476;53.468;9.826;2023-02-01T11:05:05;7.30;99.90
44166;DHT22;30476;53.468;9.826;2023-02-01T11:07:36;7.20;99.90
44166;DHT22;30476;53.468;9.826;2023-02-01T11:10:02;7.20;99.90
44166;DHT22;30476;53.468;9.826;2023-02-01T11:12:37;7.20;99.90
44166;DHT22;30476;53.468;9.826;2023-02-01T11:15:20;7.30;99.90
44166;DHT22;30476;53.468;9.826;2023-02-01T11:17:48;7.20;99.90
44166;DHT22;30476;53.468;9.826;2023-02-01T11:20:35;7.20;99.90
44166;DHT22;30476;53.468;9.826;2023-02-01T11:23:03;7.30;99.90
44166;DHT22;30476;53.468;9.826;2023-02-01T11:25:32;7.30;99.90
44166;DHT22;30476;53.468;9.826;2023-02-01T11:28:01;7.30;99.90
44166;DHT22;30476;53.468;9.826;2023-02-01T11:30:33;7.30;99.90
44166;DHT22;30476;53.468;9.826;2023-02-01T11:33:01;7.30;99.90
44166;DHT22;30476;53.468;9.826;2023-02-01T11:35:29;7.20;99.90
44166;DHT22;30476;53.468;9.826;2023-02-01T11:37:58;7.20;99.90
44166;DHT22;30476;53.468;9.826;2023-02-01T11:40:37;7.30;99.90
44166;DHT22;30476;53.468;9.826;2023-02-01T11:43:08;7.30;99.90
44166;DHT22;30476;53.468;9.826;2023-02-01T11:45:38;7.30;99.90
44166;DHT22;30476;53.468;9.826;2023-02-01T11:48:09;7.30;99.90
44166;DHT22;30476;53.468;9.826;2023-02-01T12:02:50;7.10;99.90
44166;DHT22;30476;53.468;9.826;2023-02-01T12:05:46;7.10;99.90
44166;DHT22;30476;53.468;9.826;2023-02-01T12:08:24;7.00;99.90
44166;DHT22;30476;53.468;9.826;2023-02-01T12:13:41;7.00;99.90
44166;DHT22;30476;53.468;9.826;2023-02-01T12:16:41;6.90;99.90
44166;DHT22;30476;53.468;9.826;2023-02-01T12:19:03;6.90;99.90
44166;DHT22;30476;53.468;9.826;2023-02-01T12:21:56;6.90;99.90
44166;DHT22;30476;53.468;9.826;2023-02-01T12:24:39;6.90;99.90
44166;DHT22;30476;53.468;9.826;2023-02-01T12:35:33;6.70;99.90
44166;DHT22;30476;53.468;9.826;2023-02-01T12:38:13;6.70;99.90
44166;DHT22;30476;53.468;9.826;2023-02-01T12:43:33;6.60;99.90
44166;DHT22;30476;53.468;9.826;2023-02-01T12:46:19;6.60;99.90
44166;DHT22;30476;53.468;9.826;2023-02-01T12:52:06;6.40;99.90
44166;DHT22;30476;53.468;9.826;2023-02-01T12:54:43;6.30;99.90
44166;DHT22;30476;53.468;9.826;2023-02-01T12:57:37;6.30;99.90
44166;DHT22;30476;53.468;9.826;2023-02-01T13:00:36;6.30;99.90
44166;DHT22;30476;53.468;9.826;2023-02-01T13:03:13;6.30;99.90
44166;DHT22;30476;53.468;9.826;2023-02-01T13:05:53;6.40;99.90
44166;DHT22;30476;53.468;9.826;2023-02-01T13:08:26;6.40;99.90
44166;DHT22;30476;53.468;9.826;2023-02-01T13:11:15;6.40;99.90
44166;DHT22;30476;53.468;9.826;2023-02-01T13:17:01;6.60;99.90
44166;DHT22;30476;53.468;9.826;2023-02-01T13:19:45;6.70;99.90
44166;DHT22;30476;53.468;9.826;2023-02-01T13:25:02;6.60;99.90
44166;DHT22;30476;53.468;9.826;2023-02-01T13:27:29;6.60;99.90
44166;DHT22;30476;53.468;9.826;2023-02-01T13:30:18;6.60;99.90
44166;DHT22;30476;53.468;9.826;2023-02-01T13:41:28;6.70;99.90
44166;DHT22;30476;53.468;9.826;2023-02-01T13:44:01;6.70;99.90
44166;DHT22;30476;53.468;9.826;2023-02-01T13:46:29;6.80;99.90
44166;DHT22;30476;53.468;9.826;2023-02-01T13:49:01;6.80;99.90
44166;DHT22;30476;53.468;9.826;2023-02-01T13:51:45;6.80;99.90
44166;DHT22;30476;53.468;9.826;2023-02-01T13:54:29;6.80;99.90
44166;DHT22;30476;53.468;9.826;2023-02-01T13:56:55;6.90;99.90
44166;DHT22;30476;53.468;9.826;2023-02-01T13:59:49;6.90;99.90
44166;DHT22;30476;53.468;9.826;2023-02-01T14:05:11;6.90;99.90
44166;DHT22;30476;53.468;9.826;2023-02-01T14:10:55;6.90;99.90
44166;DHT22;30476;53.468;9.826;2023-02-01T14:21:31;6.90;99.90
44166;DHT22;30476;53.468;9.826;2023-02-01T14:26:47;7.00;99.90
44166;DHT22;30476;53.468;9.826;2023-02-01T14:29:22;6.90;99.90
44166;DHT22;30476;53.468;9.826;2023-02-01T14:32:06;6.90;99.90
44166;DHT22;30476;53.468;9.826;2023-02-01T14:47:53;6.60;99.90
44166;DHT22;30476;53.468;9.826;2023-02-01T14:50:29;6.60;99.90
44166;DHT22;30476;53.468;9.826;2023-02-01T15:00:52;6.50;99.90
44166;DHT22;30476;53.468;9.826;2023-02-01T15:03:34;6.50;99.90
44166;DHT22;30476;53.468;9.826;2023-02-01T15:06:03;6.50;99.90
44166;DHT22;30476;53.468;9.826;2023-02-01T15:08:35;6.40;99.90
44166;DHT22;30476;53.468;9.826;2023-02-01T15:11:07;6.40;99.90
44166;DHT22;30476;53.468;9.826;2023-02-01T15:13:34;6.40;99.90
44166;DHT22;30476;53.468;9.826;2023-02-01T15:16:15;6.40;99.90
44166;DHT22;30476;53.468;9.826;2023-02-01T15:18:41;6.40;99.90
44166;DHT22;30476;53.468;9.826;2023-02-01T15:21:18;6.40;99.90
44166;DHT22;30476;53.468;9.826;2023-02-01T15:23:44;6.40;99.90
44166;DHT22;30476;53.468;9.826;2023-02-01T15:26:30;6.30;99.90
44166;DHT22;30476;53.468;9.826;2023-02-01T15:29:00;6.30;99.90
44166;DHT22;30476;53.468;9.826;2023-02-01T15:31:34;6.20;99.90
44166;DHT22;30476;53.468;9.826;2023-02-01T15:34:00;6.20;99.90
44166;DHT22;30476;53.468;9.826;2023-02-01T15:36:25;6.20;99.90
44166;DHT22;30476;53.468;9.826;2023-02-01T15:39:21;6.10;99.90
44166;DHT22;30476;53.468;9.826;2023-02-01T15:42:11;6.10;99.90
44166;DHT22;30476;53.468;9.826;2023-02-01T15:44:43;6.20;99.90
44166;DHT22;30476;53.468;9.826;2023-02-01T15:47:23;6.20;99.90
44166;DHT22;30476;53.468;9.826;2023-02-01T15:49:54;6.10;99.90
44166;DHT22;30476;53.468;9.826;2023-02-01T15:52:34;6.10;99.90
44166;DHT22;30476;53.468;9.826;2023-02-01T15:55:06;6.10;99.90
44166;DHT22;30476;53.468;9.826;2023-02-01T15:57:39;6.10;99.90
44166;DHT22;30476;53.468;9.826;2023-02-01T16:00:18;6.10;99.90
44166;DHT22;30476;53.468;9.826;2023-02-01T16:03:00;6.00;99.90
44166;DHT22;30476;53.468;9.826;2023-02-01T16:05:40;6.10;99.90
44166;DHT22;30476;53.468;9.826;2023-02-01T16:08:20;6.00;99.90
44166;DHT22;30476;53.468;9.826;2023-02-01T16:10:49;6.00;99.90
44166;DHT22;30476;53.468;9.826;2023-02-01T16:13:17;6.00;99.90
44166;DHT22;30476;53.468;9.826;2023-02-01T16:15:44;6.10;99.90
44166;DHT22;30476;53.468;9.826;2023-02-01T16:18:11;6.00;99.90
44166;DHT22;30476;53.468;9.826;2023-02-01T16:20:38;6.10;99.90
44166;DHT22;30476;53.468;9.826;2023-02-01T16:23:05;6.10;99.90
44166;DHT22;30476;53.468;9.826;2023-02-01T16:25:31;6.10;99.90
44166;DHT22;30476;53.468;9.826;2023-02-01T16:27:57;6.10;99.90
44166;DHT22;30476;53.468;9.826;2023-02-01T16:30:23;6.10;99.90
44166;DHT22;30476;53.468;9.826;2023-02-01T16:32:54;6.20;99.90
44166;DHT22;30476;53.468;9.826;2023-02-01T16:35:25;6.20;99.90
44166;DHT22;30476;53.468;9.826;2023-02-01T16:37:51;6.20;99.90
44166;DHT22;30476;53.468;9.826;2023-02-01T16:40:18;6.30;99.90
44166;DHT22;30476;53.468;9.826;2023-02-01T16:42:46;6.30;99.90
44166;DHT22;30476;53.468;9.826;2023-02-01T16:45:13;6.40;99.90
44166;DHT22;30476;53.468;9.826;2023-02-01T16:47:47;6.40;99.90
44166;DHT22;30476;53.468;9.826;2023-02-01T16:50:20;6.40;99.90
44166;DHT22;30476;53.468;9.826;2023-02-01T16:52:46;6.40;99.90
44166;DHT22;30476;53.468;9.826;2023-02-01T16:55:13;6.50;99.90
44166;DHT22;30476;53.468;9.826;2023-02-01T16:57:40;6.50;99.90
44166;DHT22;30476;53.468;9.826;2023-02-01T17:00:06;6.50;99.90
44166;DHT22;30476;53.468;9.826;2023-02-01T17:02:34;6.50;99.90
44166;DHT22;30476;53.468;9.826;2023-02-01T17:05:00;6.60;99.90
44166;DHT22;30476;53.468;9.826;2023-02-01T17:07:26;6.60;99.90
44166;DHT22;30476;53.468;9.826;2023-02-01T17:09:52;6.60;99.90
44166;DHT22;30476;53.468;9.826;2023-02-01T17:12:26;6.60;99.90
44166;DHT22;30476;53.468;9.826;2023-02-01T17:14:53;6.60;99.90
44166;DHT22;30476;53.468;9.826;2023-02-01T17:17:20;6.60;99.90
44166;DHT22;30476;53.468;9.826;2023-02-01T17:19:48;6.60;99.90
44166;DHT22;30476;53.468;9.826;2023-02-01T17:22:18;6.60;99.90
44166;DHT22;30476;53.468;9.826;2023-02-01T17:24:44;6.60;99.90
44166;DHT22;30476;53.468;9.826;2023-02-01T17:27:11;6.60;99.90
44166;DHT22;30476;53.468;9.826;2023-02-01T17:29:36;6.50;99.90
44166;DHT22;30476;53.468;9.826;2023-02-01T17:32:03;6.60;99.90
44166;DHT22;30476;53.468;9.826;2023-02-01T17:34:30;6.50;99.90
44166;DHT22;30476;53.468;9.826;2023-02-01T17:36:55;6.50;99.90
44166;DHT22;30476;53.468;9.826;2023-02-01T17:39:21;6.50;99.90
44166;DHT22;30476;53.468;9.826;2023-02-01T17:42:09;6.50;99.90
44166;DHT22;30476;53.468;9.826;2023-02-01T17:44:35;6.50;99.90
44166;DHT22;30476;53.468;9.826;2023-02-01T17:47:01;6.50;99.90
44166;DHT22;30476;53.468;9.826;2023-02-01T17:49:27;6.50;99.90
44166;DHT22;30476;53.468;9.826;2023-02-01T17:51:54;6.40;99.90
44166;DHT22;30476;53.468;9.826;2023-02-01T17:54:21;6.40;99.90
44166;DHT22;30476;53.468;9.826;2023-02-01T17:56:46;6.40;99.90
44166;DHT22;30476;53.468;9.826;2023-02-01T17:59:15;6.40;99.90